Time;durP1;ratioP1;P1;durP2;ratioP2;P2;SDS_P1;SDS_P2;PMS_P1;PMS_P2;Temp;Humidity;BMP_temperature;BMP_pressure;BME280_temperature;BME280_humidity;BME280_pressure;Samples;Min_cycle;Max_cycle;Signal;HPM_P1;HPM_P2
2023/09/06 00:01:53;;;;;;;8.50;5.80;;;;;;;;;;770797;181;919431;-61
2023/09/06 00:04:19;;;;;;;6.60;5.70;;;;;;;;;;768840;178;918478;-61
2023/09/06 00:06:45;;;;;;;7.83;5.80;;;;;;;;;;772371;180;817142;-66
2023/09/06 00:09:10;;;;;;;7.90;5.40;;;;;;;;;;774955;181;918678;-68
2023/09/06 00:11:36;;;;;;;7.13;5.70;;;;;;;;;;771483;180;826055;-62
2023/09/06 00:14:03;;;;;;;7.53;5.50;;;;;;;;;;776739;177;786978;-66
2023/09/06 00:16:28;;;;;;;8.57;5.53;;;;;;;;;;772148;178;852201;-66
2023/09/06 00:18:56;;;;;;;8.87;5.93;;;;;;;;;;773142;181;917985;-67
2023/09/06 00:21:21;;;;;;;9.50;5.18;;;;;;;;;;771982;180;927123;-61
2023/09/06 00:23:45;;;;;;;9.47;5.07;;;;;;;;;;777170;177;919126;-60
2023/09/06 00:26:11;;;;;;;6.67;5.30;;;;;;;;;;773399;180;919190;-60
2023/09/06 00:28:38;;;;;;;11.50;5.57;;;;;;;;;;761276;181;918342;-64
2023/09/06 00:31:03;;;;;;;8.20;5.45;;;;;;;;;;769794;181;917023;-58
2023/09/06 00:33:33;;;;;;;16.17;6.80;;;;;;;;;;774590;179;920178;-60
2023/09/06 00:35:56;;;;;;;9.13;5.97;;;;;;;;;;772905;178;915319;-66
2023/09/06 00:38:21;;;;;;;11.73;6.03;;;;;;;;;;774848;180;917791;-58
2023/09/06 00:40:47;;;;;;;7.07;5.40;;;;;;;;;;775317;181;916974;-59
2023/09/06 00:43:13;;;;;;;9.13;6.20;;;;;;;;;;770874;181;917031;-66
2023/09/06 00:45:42;;;;;;;8.40;5.97;;;;;;;;;;768212;180;926220;-60
2023/09/06 00:48:07;;;;;;;11.93;6.33;;;;;;;;;;777122;179;919209;-60
2023/09/06 00:50:35;;;;;;;10.37;5.60;;;;;;;;;;772818;180;919236;-65
2023/09/06 00:53:00;;;;;;;10.73;6.60;;;;;;;;;;764713;181;920340;-59
2023/09/06 00:55:26;;;;;;;9.75;6.97;;;;;;;;;;772700;180;920587;-60
2023/09/06 00:57:52;;;;;;;8.83;6.60;;;;;;;;;;778821;178;918751;-62
2023/09/06 01:00:22;;;;;;;10.57;6.17;;;;;;;;;;771156;178;818090;-60
2023/09/06 01:02:44;;;;;;;8.20;5.70;;;;;;;;;;770883;179;920234;-64
2023/09/06 01:05:09;;;;;;;8.67;5.77;;;;;;;;;;773678;180;817000;-60
2023/09/06 01:07:35;;;;;;;14.47;6.10;;;;;;;;;;773884;180;917820;-59
2023/09/06 01:10:01;;;;;;;7.27;5.70;;;;;;;;;;773906;180;881696;-60
2023/09/06 01:12:28;;;;;;;8.70;6.03;;;;;;;;;;777629;181;918378;-65
2023/09/06 01:14:53;;;;;;;7.00;5.40;;;;;;;;;;770004;181;870390;-58
2023/09/06 01:17:19;;;;;;;8.00;6.20;;;;;;;;;;773456;181;919181;-59
2023/09/06 01:19:44;;;;;;;7.33;5.43;;;;;;;;;;775134;180;919619;-59
2023/09/06 01:22:11;;;;;;;14.07;5.50;;;;;;;;;;770745;182;918756;-60
2023/09/06 01:24:37;;;;;;;10.50;6.30;;;;;;;;;;773226;180;918047;-65
2023/09/06 01:27:04;;;;;;;11.12;5.62;;;;;;;;;;773692;181;907827;-64
2023/09/06 01:29:29;;;;;;;8.07;5.40;;;;;;;;;;774163;181;802270;-66
2023/09/06 01:31:55;;;;;;;12.17;6.20;;;;;;;;;;763962;182;922839;-66
2023/09/06 01:34:21;;;;;;;7.70;5.60;;;;;;;;;;775096;180;918586;-65
2023/09/06 01:36:46;;;;;;;7.50;5.40;;;;;;;;;;777546;180;919530;-59
2023/09/06 01:39:12;;;;;;;8.20;6.57;;;;;;;;;;765132;180;916462;-67
2023/09/06 01:41:38;;;;;;;12.83;6.03;;;;;;;;;;760462;182;918598;-60
2023/09/06 01:44:04;;;;;;;19.87;5.55;;;;;;;;;;770941;180;920249;-64
2023/09/06 01:46:30;;;;;;;11.80;7.83;;;;;;;;;;772803;180;916985;-58
2023/09/06 01:48:59;;;;;;;6.80;5.23;;;;;;;;;;766505;179;919337;-66
2023/09/06 01:51:22;;;;;;;7.28;5.87;;;;;;;;;;770904;177;919187;-60
2023/09/06 01:53:48;;;;;;;13.60;6.47;;;;;;;;;;767918;181;919593;-60
2023/09/06 01:56:13;;;;;;;11.03;5.47;;;;;;;;;;770293;180;916552;-65
2023/09/06 01:58:39;;;;;;;11.95;6.82;;;;;;;;;;769430;180;918330;-60
2023/09/06 02:01:05;;;;;;;9.60;5.93;;;;;;;;;;778551;181;900973;-65
2023/09/06 02:03:33;;;;;;;9.88;6.87;;;;;;;;;;771546;179;919681;-64
2023/09/06 02:05:57;;;;;;;11.47;7.00;;;;;;;;;;768938;181;920342;-60
2023/09/06 02:08:23;;;;;;;9.03;6.57;;;;;;;;;;772641;181;833582;-60
2023/09/06 02:10:49;;;;;;;7.97;6.15;;;;;;;;;;760137;181;920027;-66
2023/09/06 02:13:15;;;;;;;10.40;7.77;;;;;;;;;;771155;181;847008;-65
2023/09/06 02:15:41;;;;;;;9.10;6.13;;;;;;;;;;772807;181;1017791;-60
2023/09/06 02:18:06;;;;;;;8.87;7.00;;;;;;;;;;774095;181;919753;-59
2023/09/06 02:20:32;;;;;;;9.88;7.28;;;;;;;;;;773449;178;919330;-60
2023/09/06 02:22:58;;;;;;;9.47;7.10;;;;;;;;;;769587;180;918319;-65
2023/09/06 02:25:25;;;;;;;9.40;6.83;;;;;;;;;;776067;181;918721;-65
2023/09/06 02:27:50;;;;;;;55.23;8.70;;;;;;;;;;775086;177;920651;-65
2023/09/06 02:30:17;;;;;;;12.60;7.50;;;;;;;;;;766844;179;913805;-60
2023/09/06 02:32:42;;;;;;;9.17;6.70;;;;;;;;;;769274;182;914048;-60
2023/09/06 02:35:08;;;;;;;9.37;6.43;;;;;;;;;;769099;181;896792;-58
2023/09/06 02:37:33;;;;;;;13.03;7.97;;;;;;;;;;776648;181;816434;-59
2023/09/06 02:39:59;;;;;;;10.07;7.63;;;;;;;;;;773215;177;890952;-65
2023/09/06 02:42:26;;;;;;;10.00;7.50;;;;;;;;;;781201;180;918832;-65
2023/09/06 02:44:51;;;;;;;12.00;6.70;;;;;;;;;;767986;179;939850;-60
2023/09/06 02:47:17;;;;;;;8.97;6.40;;;;;;;;;;768399;179;919349;-60
2023/09/06 02:49:43;;;;;;;11.57;7.47;;;;;;;;;;773126;181;926600;-66
2023/09/06 02:52:20;;;;;;;9.77;7.60;;;;;;;;;;769687;181;919279;-60
2023/09/06 02:54:42;;;;;;;9.73;7.17;;;;;;;;;;765089;180;905590;-66
2023/09/06 02:57:10;;;;;;;9.30;7.60;;;;;;;;;;775783;179;919475;-65
2023/09/06 02:59:33;;;;;;;10.27;7.00;;;;;;;;;;771941;181;814407;-65
2023/09/06 03:02:00;;;;;;;9.10;6.60;;;;;;;;;;767650;180;931715;-60
2023/09/06 03:04:25;;;;;;;7.77;5.90;;;;;;;;;;774031;180;919420;-59
2023/09/06 03:06:50;;;;;;;9.13;6.07;;;;;;;;;;776020;180;916293;-60
2023/09/06 03:09:16;;;;;;;12.17;8.13;;;;;;;;;;775868;180;919208;-65
2023/09/06 03:11:42;;;;;;;8.10;6.27;;;;;;;;;;760719;183;918783;-60
2023/09/06 03:14:08;;;;;;;11.70;6.70;;;;;;;;;;778935;179;849375;-67
2023/09/06 03:16:38;;;;;;;10.20;6.93;;;;;;;;;;773383;180;924582;-65
2023/09/06 03:19:00;;;;;;;10.60;8.47;;;;;;;;;;773960;179;918355;-59
2023/09/06 03:21:25;;;;;;;10.43;6.40;;;;;;;;;;779744;180;817283;-60
2023/09/06 03:23:52;;;;;;;8.33;6.60;;;;;;;;;;778180;180;918210;-60
2023/09/06 03:26:17;;;;;;;18.70;8.87;;;;;;;;;;775013;180;919531;-59
2023/09/06 03:28:43;;;;;;;10.10;6.93;;;;;;;;;;775663;177;903252;-65
2023/09/06 03:31:09;;;;;;;9.60;7.00;;;;;;;;;;780683;178;919497;-65
2023/09/06 03:33:35;;;;;;;12.47;6.73;;;;;;;;;;773016;180;919343;-59
2023/09/06 03:36:01;;;;;;;9.57;6.57;;;;;;;;;;774014;178;916537;-60
2023/09/06 03:38:26;;;;;;;8.80;6.10;;;;;;;;;;780363;180;915842;-65
2023/09/06 03:40:52;;;;;;;10.03;7.83;;;;;;;;;;774376;179;918020;-65
2023/09/06 03:43:20;;;;;;;10.40;6.70;;;;;;;;;;772660;180;814658;-65
2023/09/06 03:45:46;;;;;;;8.20;6.68;;;;;;;;;;776979;180;919152;-66
2023/09/06 03:48:12;;;;;;;15.43;6.70;;;;;;;;;;770811;180;918445;-59
2023/09/06 03:50:37;;;;;;;11.20;6.63;;;;;;;;;;774755;178;919427;-66
2023/09/06 03:53:04;;;;;;;9.97;6.50;;;;;;;;;;768054;181;923813;-65
2023/09/06 03:55:29;;;;;;;10.63;6.57;;;;;;;;;;770547;181;920192;-65
2023/09/06 03:57:55;;;;;;;11.20;8.17;;;;;;;;;;774927;180;919030;-65
2023/09/06 04:00:26;;;;;;;15.57;7.67;;;;;;;;;;772253;178;905334;-67
2023/09/06 04:02:50;;;;;;;8.15;6.30;;;;;;;;;;779904;180;929514;-67
2023/09/06 04:05:15;;;;;;;7.70;6.40;;;;;;;;;;773078;180;922682;-66
2023/09/06 04:07:41;;;;;;;8.57;6.20;;;;;;;;;;770445;180;919740;-66
2023/09/06 04:10:16;;;;;;;10.10;6.37;;;;;;;;;;776721;179;816127;-66
2023/09/06 04:12:35;;;;;;;7.63;5.70;;;;;;;;;;773696;180;917638;-65
2023/09/06 04:14:59;;;;;;;8.80;6.43;;;;;;;;;;771923;181;1065444;-66
2023/09/06 04:17:27;;;;;;;7.40;5.73;;;;;;;;;;774532;180;919661;-60
2023/09/06 04:19:51;;;;;;;8.53;5.80;;;;;;;;;;770810;181;910627;-65
2023/09/06 04:22:17;;;;;;;7.97;6.03;;;;;;;;;;771066;177;918082;-59
2023/09/06 04:24:44;;;;;;;9.83;6.00;;;;;;;;;;772392;181;869988;-60
2023/09/06 04:27:12;;;;;;;6.90;5.50;;;;;;;;;;763819;181;918246;-59
2023/09/06 04:29:35;;;;;;;9.90;5.33;;;;;;;;;;775551;178;907774;-58
2023/09/06 04:32:01;;;;;;;9.93;6.97;;;;;;;;;;778122;180;632261;-67
2023/09/06 04:34:27;;;;;;;8.50;5.87;;;;;;;;;;781520;180;654857;-66
2023/09/06 04:36:53;;;;;;;12.70;6.80;;;;;;;;;;773474;177;627044;-66
2023/09/06 04:39:20;;;;;;;10.33;6.67;;;;;;;;;;767733;181;627035;-66
2023/09/06 04:41:45;;;;;;;9.03;6.10;;;;;;;;;;774291;178;641515;-65
2023/09/06 04:44:10;;;;;;;8.80;5.90;;;;;;;;;;771594;180;614401;-68
2023/09/06 04:46:36;;;;;;;10.13;6.30;;;;;;;;;;771670;179;629395;-67
2023/09/06 04:49:02;;;;;;;9.20;6.27;;;;;;;;;;775260;177;623446;-67
2023/09/06 04:51:28;;;;;;;7.50;6.10;;;;;;;;;;779373;180;613957;-67
2023/09/06 04:53:54;;;;;;;10.40;6.30;;;;;;;;;;775543;181;629953;-60
2023/09/06 04:56:20;;;;;;;10.47;6.50;;;;;;;;;;773892;178;627379;-60
2023/09/06 04:58:45;;;;;;;8.83;6.60;;;;;;;;;;763952;181;912075;-67
2023/09/06 05:01:11;;;;;;;11.50;7.50;;;;;;;;;;774201;178;921536;-68
2023/09/06 05:03:39;;;;;;;9.10;7.00;;;;;;;;;;775564;177;911457;-67
2023/09/06 05:06:04;;;;;;;9.70;6.60;;;;;;;;;;780303;177;764539;-59
2023/09/06 05:08:30;;;;;;;12.73;7.23;;;;;;;;;;773853;179;909672;-65
2023/09/06 05:10:56;;;;;;;9.70;6.77;;;;;;;;;;773368;177;919740;-67
2023/09/06 05:13:22;;;;;;;11.20;6.90;;;;;;;;;;773478;177;928517;-60
2023/09/06 05:15:47;;;;;;;10.07;6.63;;;;;;;;;;780043;180;918682;-65
2023/09/06 05:18:14;;;;;;;12.23;7.87;;;;;;;;;;773343;180;903565;-67
2023/09/06 05:20:39;;;;;;;9.80;7.30;;;;;;;;;;780407;178;817382;-60
2023/09/06 05:23:05;;;;;;;9.50;7.77;;;;;;;;;;776643;180;917636;-60
2023/09/06 05:25:31;;;;;;;7.23;6.27;;;;;;;;;;772535;179;919581;-60
2023/09/06 05:27:57;;;;;;;8.27;6.10;;;;;;;;;;766079;181;916016;-60
2023/09/06 05:30:22;;;;;;;11.50;8.07;;;;;;;;;;780605;177;816626;-66
2023/09/06 05:32:49;;;;;;;11.93;8.63;;;;;;;;;;771727;177;920063;-60
2023/09/06 05:35:14;;;;;;;13.07;8.47;;;;;;;;;;761639;181;919424;-64
2023/09/06 05:37:40;;;;;;;12.63;8.70;;;;;;;;;;774326;180;918646;-65
2023/09/06 05:40:06;;;;;;;15.33;9.90;;;;;;;;;;771285;180;918307;-60
2023/09/06 05:42:32;;;;;;;12.80;9.90;;;;;;;;;;761911;181;1045579;-59
2023/09/06 05:44:58;;;;;;;13.38;9.60;;;;;;;;;;773388;180;815583;-66
2023/09/06 05:47:24;;;;;;;15.90;9.00;;;;;;;;;;778555;181;816111;-67
2023/09/06 05:49:52;;;;;;;11.33;8.87;;;;;;;;;;770629;178;929242;-67
2023/09/06 05:52:16;;;;;;;11.90;8.87;;;;;;;;;;755756;184;907427;-65
2023/09/06 05:54:42;;;;;;;12.80;8.83;;;;;;;;;;776010;180;923175;-66
2023/09/06 05:57:08;;;;;;;15.53;9.50;;;;;;;;;;768873;178;921563;-65
2023/09/06 05:59:34;;;;;;;12.30;8.73;;;;;;;;;;769256;181;920098;-60
2023/09/06 06:02:00;;;;;;;10.63;8.07;;;;;;;;;;771107;180;1021636;-60
2023/09/06 06:04:26;;;;;;;9.70;7.50;;;;;;;;;;767939;180;913261;-60
2023/09/06 06:06:52;;;;;;;10.93;9.00;;;;;;;;;;760700;181;914213;-67
2023/09/06 06:09:21;;;;;;;14.53;9.50;;;;;;;;;;770596;180;918470;-60
2023/09/06 06:11:44;;;;;;;13.37;9.97;;;;;;;;;;774939;177;817563;-65
2023/09/06 06:14:10;;;;;;;15.70;8.80;;;;;;;;;;760947;180;816049;-60
2023/09/06 06:16:36;;;;;;;11.70;8.90;;;;;;;;;;762217;180;917265;-60
2023/09/06 06:19:03;;;;;;;11.00;8.50;;;;;;;;;;778224;181;917527;-60
2023/09/06 06:21:28;;;;;;;11.70;8.37;;;;;;;;;;774539;178;915078;-59
2023/09/06 06:23:54;;;;;;;10.10;8.30;;;;;;;;;;768425;180;906559;-65
2023/09/06 06:26:20;;;;;;;10.13;9.03;;;;;;;;;;769926;181;919820;-67
2023/09/06 06:28:45;;;;;;;11.57;8.67;;;;;;;;;;769653;180;918610;-60
2023/09/06 06:31:11;;;;;;;12.00;8.60;;;;;;;;;;773960;179;917786;-67
2023/09/06 06:33:38;;;;;;;16.03;8.50;;;;;;;;;;771424;181;919360;-65
2023/09/06 06:36:03;;;;;;;11.40;8.90;;;;;;;;;;781777;181;817381;-60
2023/09/06 06:38:29;;;;;;;9.93;7.90;;;;;;;;;;775110;179;919641;-61
2023/09/06 06:40:55;;;;;;;10.10;8.30;;;;;;;;;;771713;179;882820;-68
2023/09/06 06:43:21;;;;;;;10.97;8.47;;;;;;;;;;780600;180;817813;-65
2023/09/06 06:45:47;;;;;;;9.20;7.73;;;;;;;;;;773985;179;817320;-66
2023/09/06 06:48:12;;;;;;;11.13;7.60;;;;;;;;;;774329;180;817348;-66
2023/09/06 06:50:38;;;;;;;11.33;7.37;;;;;;;;;;779877;177;907905;-66
2023/09/06 06:53:04;;;;;;;11.40;7.97;;;;;;;;;;769805;181;916949;-61
2023/09/06 06:55:30;;;;;;;10.53;7.70;;;;;;;;;;769565;180;941628;-66
2023/09/06 06:57:56;;;;;;;15.33;7.63;;;;;;;;;;774875;181;919212;-65
2023/09/06 07:00:22;;;;;;;19.63;7.47;;;;;;;;;;768821;180;919269;-61
2023/09/06 07:02:47;;;;;;;10.97;7.77;;;;;;;;;;764452;181;919151;-60
2023/09/06 07:05:13;;;;;;;12.93;7.70;;;;;;;;;;765989;181;918227;-66
2023/09/06 07:07:39;;;;;;;11.88;7.55;;;;;;;;;;777080;180;917463;-61
2023/09/06 07:10:07;;;;;;;12.90;8.07;;;;;;;;;;758438;181;921489;-61
2023/09/06 07:12:31;;;;;;;14.17;7.80;;;;;;;;;;766129;180;917986;-65
2023/09/06 07:14:58;;;;;;;8.23;6.80;;;;;;;;;;773623;181;919041;-65
2023/09/06 07:17:23;;;;;;;10.40;7.63;;;;;;;;;;774599;177;918958;-60
2023/09/06 07:19:49;;;;;;;8.80;7.03;;;;;;;;;;773885;180;821044;-65
2023/09/06 07:22:15;;;;;;;12.50;7.23;;;;;;;;;;775672;180;913206;-60
2023/09/06 07:24:41;;;;;;;11.17;8.97;;;;;;;;;;769130;180;888058;-64
2023/09/06 07:27:06;;;;;;;9.27;6.53;;;;;;;;;;772547;177;918035;-63
2023/09/06 07:29:32;;;;;;;13.30;6.80;;;;;;;;;;772158;180;921951;-60
2023/09/06 07:31:58;;;;;;;11.40;7.13;;;;;;;;;;776849;180;921006;-59
2023/09/06 07:34:24;;;;;;;7.20;6.30;;;;;;;;;;775846;180;823923;-63
2023/09/06 07:36:50;;;;;;;11.00;7.53;;;;;;;;;;771621;181;920561;-60
2023/09/06 07:39:17;;;;;;;11.20;7.10;;;;;;;;;;779552;180;919019;-63
2023/09/06 07:41:41;;;;;;;8.83;6.33;;;;;;;;;;770628;180;799356;-62
2023/09/06 07:44:07;;;;;;;9.60;7.00;;;;;;;;;;772190;178;920044;-63
2023/09/06 07:46:34;;;;;;;10.53;7.27;;;;;;;;;;778865;180;919521;-60
2023/09/06 07:48:59;;;;;;;10.13;6.85;;;;;;;;;;771082;177;921840;-60
2023/09/06 07:51:25;;;;;;;9.80;6.87;;;;;;;;;;763054;181;920856;-59
2023/09/06 07:53:51;;;;;;;9.00;6.40;;;;;;;;;;768809;178;919669;-63
2023/09/06 07:56:16;;;;;;;8.50;5.90;;;;;;;;;;776968;180;916896;-63
2023/09/06 07:58:42;;;;;;;8.03;6.47;;;;;;;;;;776328;180;919286;-63
2023/09/06 08:01:08;;;;;;;9.20;6.87;;;;;;;;;;775438;178;918254;-62
2023/09/06 08:03:34;;;;;;;8.80;6.60;;;;;;;;;;778261;181;920174;-63
2023/09/06 08:06:00;;;;;;;7.37;6.27;;;;;;;;;;769645;181;914422;-64
2023/09/06 08:08:26;;;;;;;15.33;6.60;;;;;;;;;;774220;180;919549;-63
2023/09/06 08:10:51;;;;;;;7.80;6.70;;;;;;;;;;779721;180;946278;-63
2023/09/06 08:13:18;;;;;;;8.90;6.90;;;;;;;;;;773500;180;917352;-62
2023/09/06 08:15:44;;;;;;;9.73;7.62;;;;;;;;;;776595;181;918012;-62
2023/09/06 08:18:09;;;;;;;7.83;6.83;;;;;;;;;;777866;181;915796;-63
2023/09/06 08:20:35;;;;;;;8.93;7.00;;;;;;;;;;768118;178;913574;-64
2023/09/06 08:23:01;;;;;;;8.97;6.83;;;;;;;;;;767631;180;939904;-63
2023/09/06 08:25:27;;;;;;;10.73;7.65;;;;;;;;;;768375;178;923283;-62
2023/09/06 08:27:52;;;;;;;9.50;6.30;;;;;;;;;;778580;177;911674;-61
2023/09/06 08:30:18;;;;;;;7.97;5.87;;;;;;;;;;769992;179;921615;-64
2023/09/06 08:32:45;;;;;;;7.97;6.53;;;;;;;;;;762517;182;912337;-59
2023/09/06 08:35:13;;;;;;;9.27;6.83;;;;;;;;;;773611;181;921742;-64
2023/09/06 08:37:38;;;;;;;8.10;5.60;;;;;;;;;;763491;181;920454;-63
2023/09/06 08:40:06;;;;;;;9.73;6.50;;;;;;;;;;766199;182;917663;-59
2023/09/06 08:42:33;;;;;;;10.63;6.78;;;;;;;;;;779466;177;911626;-62
2023/09/06 08:44:58;;;;;;;10.57;7.60;;;;;;;;;;772538;179;939693;-61
2023/09/06 08:47:23;;;;;;;8.97;5.93;;;;;;;;;;775257;178;918501;-63
2023/09/06 08:49:49;;;;;;;7.00;6.30;;;;;;;;;;768648;181;919589;-61
2023/09/06 08:52:15;;;;;;;6.67;5.77;;;;;;;;;;775108;177;917308;-58
2023/09/06 08:54:42;;;;;;;9.27;6.00;;;;;;;;;;775056;180;919349;-63
2023/09/06 08:57:08;;;;;;;9.83;6.50;;;;;;;;;;775650;177;820269;-60
2023/09/06 08:59:34;;;;;;;10.37;6.73;;;;;;;;;;766018;181;919864;-59
2023/09/06 09:01:59;;;;;;;9.03;6.80;;;;;;;;;;774970;180;920100;-59
2023/09/06 09:04:25;;;;;;;9.70;6.20;;;;;;;;;;768608;180;919604;-58
2023/09/06 09:06:51;;;;;;;7.53;6.00;;;;;;;;;;781157;180;861203;-63
2023/09/06 09:09:17;;;;;;;6.70;5.73;;;;;;;;;;770684;181;916706;-58
2023/09/06 09:11:43;;;;;;;10.60;5.40;;;;;;;;;;769621;178;919284;-60
2023/09/06 09:14:08;;;;;;;6.13;4.30;;;;;;;;;;773726;180;919240;-61
2023/09/06 09:16:34;;;;;;;7.40;5.10;;;;;;;;;;780604;177;918891;-60
2023/09/06 09:19:01;;;;;;;5.83;5.20;;;;;;;;;;771335;180;918356;-64
2023/09/06 09:21:27;;;;;;;7.07;5.00;;;;;;;;;;774106;180;919189;-60
2023/09/06 09:23:54;;;;;;;6.10;4.67;;;;;;;;;;780209;181;816922;-64
2023/09/06 09:26:19;;;;;;;7.53;4.90;;;;;;;;;;769255;180;918876;-64
2023/09/06 09:28:45;;;;;;;8.90;5.10;;;;;;;;;;772589;178;816723;-59
2023/09/06 09:31:13;;;;;;;7.23;5.30;;;;;;;;;;778971;177;919128;-59
2023/09/06 09:33:37;;;;;;;11.80;5.17;;;;;;;;;;760299;180;919246;-64
2023/09/06 09:36:03;;;;;;;5.83;4.67;;;;;;;;;;762069;181;917847;-65
2023/09/06 09:38:29;;;;;;;6.05;4.60;;;;;;;;;;773079;178;915362;-65
2023/09/06 09:41:00;;;;;;;5.87;4.33;;;;;;;;;;779681;177;853283;-59
2023/09/06 09:43:26;;;;;;;5.93;4.70;;;;;;;;;;762939;182;854194;-60
2023/09/06 09:45:52;;;;;;;7.32;4.90;;;;;;;;;;766987;180;917992;-65
2023/09/06 09:48:18;;;;;;;6.43;4.43;;;;;;;;;;779160;181;919401;-64
2023/09/06 09:50:44;;;;;;;8.53;4.67;;;;;;;;;;773384;179;919356;-60
2023/09/06 09:53:10;;;;;;;8.50;4.90;;;;;;;;;;775155;177;925371;-59
2023/09/06 09:55:35;;;;;;;5.17;4.10;;;;;;;;;;770315;180;921311;-64
2023/09/06 09:58:05;;;;;;;6.97;4.57;;;;;;;;;;775640;179;919549;-59
2023/09/06 10:00:28;;;;;;;4.50;3.23;;;;;;;;;;774164;177;920043;-60
2023/09/06 10:02:55;;;;;;;4.70;3.50;;;;;;;;;;773802;180;927512;-59
2023/09/06 10:05:20;;;;;;;4.50;3.10;;;;;;;;;;779992;180;919258;-59
2023/09/06 10:07:46;;;;;;;4.35;3.40;;;;;;;;;;774575;179;917337;-64
2023/09/06 10:10:12;;;;;;;4.13;3.50;;;;;;;;;;770966;180;891761;-59
2023/09/06 10:12:44;;;;;;;5.40;2.90;;;;;;;;;;779547;180;920958;-64
2023/09/06 10:15:10;;;;;;;4.70;3.07;;;;;;;;;;779037;180;915252;-61
2023/09/06 10:17:35;;;;;;;4.10;3.10;;;;;;;;;;775086;180;920670;-61
2023/09/06 10:20:02;;;;;;;5.47;3.70;;;;;;;;;;774513;181;915998;-62
2023/09/06 10:22:27;;;;;;;5.57;3.40;;;;;;;;;;780598;180;820363;-61
2023/09/06 10:24:53;;;;;;;6.43;3.90;;;;;;;;;;772332;180;922860;-62
2023/09/06 10:27:19;;;;;;;6.20;3.50;;;;;;;;;;775443;180;917967;-61
2023/09/06 10:29:49;;;;;;;6.90;3.80;;;;;;;;;;779920;180;918592;-66
2023/09/06 10:32:13;;;;;;;4.50;3.20;;;;;;;;;;778564;179;816926;-67
2023/09/06 10:34:40;;;;;;;6.00;3.40;;;;;;;;;;774551;180;920246;-65
2023/09/06 10:37:07;;;;;;;4.32;3.12;;;;;;;;;;774819;180;919309;-65
2023/09/06 10:39:31;;;;;;;5.10;3.50;;;;;;;;;;766459;181;818740;-59
2023/09/06 10:42:03;;;;;;;4.30;2.60;;;;;;;;;;771424;180;919209;-62
2023/09/06 10:44:29;;;;;;;8.03;4.20;;;;;;;;;;774274;180;917175;-66
2023/09/06 10:46:54;;;;;;;3.93;2.97;;;;;;;;;;777457;180;885090;-61
2023/09/06 10:49:22;;;;;;;4.90;3.00;;;;;;;;;;764791;181;822337;-64
2023/09/06 10:51:52;;;;;;;6.53;2.73;;;;;;;;;;773004;178;920108;-65
2023/09/06 10:54:18;;;;;;;4.90;3.57;;;;;;;;;;770729;180;919293;-64
2023/09/06 10:56:44;;;;;;;5.00;3.87;;;;;;;;;;778210;180;913712;-65
2023/09/06 10:59:10;;;;;;;6.00;3.70;;;;;;;;;;770593;180;918971;-61
2023/09/06 11:01:36;;;;;;;5.90;4.33;;;;;;;;;;776166;179;892978;-65
2023/09/06 11:04:03;;;;;;;5.07;3.90;;;;;;;;;;760691;181;916422;-63
2023/09/06 11:06:27;;;;;;;6.30;3.90;;;;;;;;;;762296;182;919264;-60
2023/09/06 11:08:54;;;;;;;3.80;3.13;;;;;;;;;;770321;180;919188;-61
2023/09/06 11:11:20;;;;;;;4.80;3.53;;;;;;;;;;778005;178;913703;-61
2023/09/06 11:13:45;;;;;;;4.07;3.23;;;;;;;;;;772021;181;918747;-66
2023/09/06 11:16:11;;;;;;;5.77;3.93;;;;;;;;;;774601;177;916131;-61
2023/09/06 11:18:41;;;;;;;5.33;3.40;;;;;;;;;;777122;177;815276;-61
2023/09/06 11:21:07;;;;;;;3.90;2.97;;;;;;;;;;781044;180;909908;-59
2023/09/06 11:23:33;;;;;;;7.00;3.00;;;;;;;;;;774961;177;909723;-64
2023/09/06 11:25:59;;;;;;;4.33;3.53;;;;;;;;;;775024;177;819207;-61
2023/09/06 11:28:28;;;;;;;6.60;3.10;;;;;;;;;;780161;180;629092;-61
2023/09/06 11:30:52;;;;;;;5.00;3.47;;;;;;;;;;771416;180;916480;-64
2023/09/06 11:33:17;;;;;;;4.63;3.10;;;;;;;;;;769016;180;819228;-60
2023/09/06 11:35:45;;;;;;;8.53;3.60;;;;;;;;;;774322;180;922246;-60
2023/09/06 11:38:11;;;;;;;4.67;3.70;;;;;;;;;;775335;179;919324;-60
2023/09/06 11:40:36;;;;;;;6.20;3.63;;;;;;;;;;769809;181;921316;-64
2023/09/06 11:43:04;;;;;;;5.53;4.10;;;;;;;;;;773139;177;939134;-64
2023/09/06 11:45:30;;;;;;;4.27;3.00;;;;;;;;;;776355;180;917441;-65
2023/09/06 11:47:54;;;;;;;4.10;3.07;;;;;;;;;;765454;180;827087;-60
2023/09/06 11:50:19;;;;;;;4.07;3.03;;;;;;;;;;765188;181;925965;-59
2023/09/06 11:52:46;;;;;;;3.77;3.27;;;;;;;;;;780779;180;917309;-66
2023/09/06 11:55:11;;;;;;;3.90;3.10;;;;;;;;;;774189;181;919527;-59
2023/09/06 11:57:37;;;;;;;4.70;3.13;;;;;;;;;;775241;181;908834;-64
2023/09/06 12:00:03;;;;;;;5.03;3.60;;;;;;;;;;765257;180;816865;-64
2023/09/06 12:02:30;;;;;;;6.13;3.10;;;;;;;;;;778452;181;817076;-66
2023/09/06 12:05:00;;;;;;;3.77;2.77;;;;;;;;;;772403;177;918977;-66
2023/09/06 12:07:23;;;;;;;5.47;3.22;;;;;;;;;;761091;179;917832;-66
2023/09/06 12:09:48;;;;;;;4.77;3.17;;;;;;;;;;779989;180;919310;-60
2023/09/06 12:12:17;;;;;;;4.47;3.17;;;;;;;;;;776179;179;917861;-60
2023/09/06 12:14:40;;;;;;;4.40;3.40;;;;;;;;;;774254;177;817692;-61
2023/09/06 12:17:06;;;;;;;5.03;3.37;;;;;;;;;;777254;180;918670;-59
2023/09/06 12:19:32;;;;;;;4.23;3.13;;;;;;;;;;775600;177;920592;-60
2023/09/06 12:21:58;;;;;;;4.17;3.17;;;;;;;;;;774096;180;921286;-65
2023/09/06 12:24:24;;;;;;;10.73;3.47;;;;;;;;;;772154;178;818392;-65
2023/09/06 12:26:49;;;;;;;4.30;2.80;;;;;;;;;;775005;180;918797;-65
2023/09/06 12:29:15;;;;;;;4.37;3.43;;;;;;;;;;772596;179;930797;-58
2023/09/06 12:31:41;;;;;;;4.43;3.17;;;;;;;;;;775764;180;918157;-64
2023/09/06 12:34:07;;;;;;;5.73;3.00;;;;;;;;;;777466;181;816809;-60
2023/09/06 12:36:33;;;;;;;4.10;3.40;;;;;;;;;;773987;181;918535;-66
2023/09/06 12:38:58;;;;;;;5.78;3.40;;;;;;;;;;774986;181;918877;-66
2023/09/06 12:41:24;;;;;;;5.17;3.80;;;;;;;;;;777642;180;915436;-65
2023/09/06 12:43:50;;;;;;;10.50;3.43;;;;;;;;;;774914;180;918164;-61
2023/09/06 12:46:18;;;;;;;4.93;3.47;;;;;;;;;;773689;180;894001;-64
2023/09/06 12:48:42;;;;;;;6.90;2.77;;;;;;;;;;771882;181;816601;-60
2023/09/06 12:51:08;;;;;;;4.53;3.30;;;;;;;;;;774534;180;919290;-64
2023/09/06 12:53:34;;;;;;;4.00;3.20;;;;;;;;;;774268;180;917128;-64
2023/09/06 12:55:59;;;;;;;3.90;2.90;;;;;;;;;;774223;180;818859;-60
2023/09/06 12:58:25;;;;;;;4.63;3.60;;;;;;;;;;774852;180;918874;-59
2023/09/06 13:00:53;;;;;;;4.30;3.00;;;;;;;;;;770871;178;821977;-59
2023/09/06 13:03:17;;;;;;;4.13;3.13;;;;;;;;;;772693;177;918327;-58
2023/09/06 13:05:43;;;;;;;3.77;3.17;;;;;;;;;;784630;180;628792;-65
2023/09/06 13:08:09;;;;;;;4.13;2.80;;;;;;;;;;778000;177;628045;-63
2023/09/06 13:10:34;;;;;;;5.63;3.00;;;;;;;;;;765377;180;915291;-63
2023/09/06 13:13:00;;;;;;;9.03;4.17;;;;;;;;;;773246;181;914458;-63
2023/09/06 13:15:26;;;;;;;3.83;2.50;;;;;;;;;;779684;180;633357;-64
2023/09/06 13:17:52;;;;;;;3.80;2.63;;;;;;;;;;770785;181;919618;-64
2023/09/06 13:20:18;;;;;;;3.57;2.57;;;;;;;;;;772548;178;893880;-60
2023/09/06 13:22:44;;;;;;;4.80;2.77;;;;;;;;;;762312;181;825590;-65
2023/09/06 13:25:11;;;;;;;3.40;2.57;;;;;;;;;;763497;180;915202;-59
2023/09/06 13:27:38;;;;;;;3.30;2.50;;;;;;;;;;775346;180;918411;-60
2023/09/06 13:30:02;;;;;;;4.60;3.40;;;;;;;;;;776818;180;927723;-59
2023/09/06 13:32:28;;;;;;;3.30;2.40;;;;;;;;;;773903;180;920182;-65
2023/09/06 13:34:54;;;;;;;5.23;3.37;;;;;;;;;;774477;180;920131;-63
2023/09/06 13:37:20;;;;;;;4.00;2.90;;;;;;;;;;778749;180;784832;-59
2023/09/06 13:39:46;;;;;;;3.77;2.40;;;;;;;;;;770534;181;843353;-59
2023/09/06 13:42:11;;;;;;;3.93;2.87;;;;;;;;;;775028;179;917551;-64
2023/09/06 13:44:37;;;;;;;4.78;2.90;;;;;;;;;;779559;180;919324;-58
2023/09/06 13:47:04;;;;;;;6.10;3.10;;;;;;;;;;772325;180;818529;-64
2023/09/06 13:49:29;;;;;;;4.03;3.03;;;;;;;;;;772740;178;918610;-64
2023/09/06 13:51:55;;;;;;;8.70;2.80;;;;;;;;;;772992;180;921729;-65
2023/09/06 13:54:21;;;;;;;3.60;2.90;;;;;;;;;;780348;178;916174;-59
2023/09/06 13:56:49;;;;;;;5.10;2.73;;;;;;;;;;772593;176;953652;-65
2023/09/06 13:59:16;;;;;;;5.10;3.10;;;;;;;;;;764634;183;815504;-60
2023/09/06 14:01:42;;;;;;;4.27;3.37;;;;;;;;;;775038;179;912422;-60
2023/09/06 14:04:09;;;;;;;3.90;2.73;;;;;;;;;;773302;181;916337;-64
2023/09/06 14:06:34;;;;;;;3.47;2.50;;;;;;;;;;770239;177;915984;-64
2023/09/06 14:09:00;;;;;;;4.33;2.83;;;;;;;;;;774178;178;995312;-60
2023/09/06 14:11:26;;;;;;;5.50;3.20;;;;;;;;;;773001;180;926737;-60
2023/09/06 14:13:53;;;;;;;4.90;3.40;;;;;;;;;;765763;179;920226;-60
2023/09/06 14:16:18;;;;;;;4.10;2.83;;;;;;;;;;775578;178;921608;-66
2023/09/06 14:18:44;;;;;;;4.47;2.77;;;;;;;;;;775786;181;919613;-65